sensor_id;sensor_type;location;lat;lon;timestamp;P1;durP1;ratioP1;P2;durP2;ratioP2
54384;SDS011;40284;52.878;5.998;2022-11-20T00:01:12;37.28;;;21.50;;
54384;SDS011;40284;52.878;5.998;2022-11-20T00:03:38;37.65;;;21.70;;
54384;SDS011;40284;52.878;5.998;2022-11-20T00:06:05;35.20;;;20.80;;
54384;SDS011;40284;52.878;5.998;2022-11-20T00:08:31;35.85;;;22.80;;
54384;SDS011;40284;52.878;5.998;2022-11-20T00:11:02;43.10;;;25.20;;
54384;SDS011;40284;52.878;5.998;2022-11-20T00:13:28;42.60;;;26.52;;
54384;SDS011;40284;52.878;5.998;2022-11-20T00:15:57;38.35;;;23.30;;
54384;SDS011;40284;52.878;5.998;2022-11-20T00:18:24;33.17;;;21.27;;
54384;SDS011;40284;52.878;5.998;2022-11-20T00:20:50;33.17;;;21.05;;
54384;SDS011;40284;52.878;5.998;2022-11-20T00:23:16;34.20;;;20.23;;
54384;SDS011;40284;52.878;5.998;2022-11-20T00:25:42;34.35;;;22.52;;
54384;SDS011;40284;52.878;5.998;2022-11-20T00:28:08;32.08;;;20.85;;
54384;SDS011;40284;52.878;5.998;2022-11-20T00:30:34;30.63;;;20.00;;
54384;SDS011;40284;52.878;5.998;2022-11-20T00:33:00;33.05;;;19.65;;
54384;SDS011;40284;52.878;5.998;2022-11-20T00:35:26;32.35;;;21.15;;
54384;SDS011;40284;52.878;5.998;2022-11-20T00:37:52;32.80;;;19.85;;
54384;SDS011;40284;52.878;5.998;2022-11-20T00:40:18;28.55;;;18.90;;
54384;SDS011;40284;52.878;5.998;2022-11-20T00:42:45;32.20;;;20.00;;
54384;SDS011;40284;52.878;5.998;2022-11-20T00:45:11;28.45;;;18.95;;
54384;SDS011;40284;52.878;5.998;2022-11-20T00:47:37;27.58;;;18.83;;
54384;SDS011;40284;52.878;5.998;2022-11-20T00:50:03;31.33;;;19.92;;
54384;SDS011;40284;52.878;5.998;2022-11-20T00:52:29;30.08;;;20.23;;
54384;SDS011;40284;52.878;5.998;2022-11-20T00:54:55;60.55;;;36.15;;
54384;SDS011;40284;52.878;5.998;2022-11-20T00:57:21;77.40;;;42.60;;
54384;SDS011;40284;52.878;5.998;2022-11-20T00:59:47;68.93;;;39.88;;
54384;SDS011;40284;52.878;5.998;2022-11-20T01:02:13;60.85;;;34.97;;
54384;SDS011;40284;52.878;5.998;2022-11-20T01:04:41;53.42;;;31.48;;
54384;SDS011;40284;52.878;5.998;2022-11-20T01:07:07;48.72;;;28.40;;
54384;SDS011;40284;52.878;5.998;2022-11-20T01:09:33;35.08;;;21.45;;
54384;SDS011;40284;52.878;5.998;2022-11-20T01:11:59;32.08;;;19.15;;
54384;SDS011;40284;52.878;5.998;2022-11-20T01:14:25;27.20;;;17.88;;
54384;SDS011;40284;52.878;5.998;2022-11-20T01:16:51;27.67;;;16.65;;
54384;SDS011;40284;52.878;5.998;2022-11-20T01:19:19;24.02;;;16.73;;
54384;SDS011;40284;52.878;5.998;2022-11-20T01:21:45;21.23;;;14.80;;
54384;SDS011;40284;52.878;5.998;2022-11-20T01:24:14;27.50;;;18.45;;
54384;SDS011;40284;52.878;5.998;2022-11-20T01:26:42;30.60;;;19.35;;
54384;SDS011;40284;52.878;5.998;2022-11-20T01:29:19;27.35;;;16.85;;
54384;SDS011;40284;52.878;5.998;2022-11-20T01:31:45;30.65;;;18.35;;
54384;SDS011;40284;52.878;5.998;2022-11-20T01:34:12;28.80;;;17.58;;
54384;SDS011;40284;52.878;5.998;2022-11-20T01:36:39;26.98;;;18.27;;
54384;SDS011;40284;52.878;5.998;2022-11-20T01:39:07;26.40;;;17.83;;
54384;SDS011;40284;52.878;5.998;2022-11-20T01:41:33;24.92;;;16.10;;
54384;SDS011;40284;52.878;5.998;2022-11-20T01:44:19;27.05;;;16.55;;
54384;SDS011;40284;52.878;5.998;2022-11-20T01:46:52;21.25;;;15.52;;
54384;SDS011;40284;52.878;5.998;2022-11-20T01:49:27;25.95;;;17.15;;
54384;SDS011;40284;52.878;5.998;2022-11-20T01:51:56;23.10;;;16.10;;
54384;SDS011;40284;52.878;5.998;2022-11-20T01:54:25;24.45;;;17.30;;
54384;SDS011;40284;52.878;5.998;2022-11-20T01:56:54;27.20;;;17.20;;
54384;SDS011;40284;52.878;5.998;2022-11-20T01:59:21;24.40;;;17.27;;
54384;SDS011;40284;52.878;5.998;2022-11-20T02:01:48;25.50;;;17.38;;
54384;SDS011;40284;52.878;5.998;2022-11-20T02:04:14;28.70;;;18.77;;
54384;SDS011;40284;52.878;5.998;2022-11-20T02:09:07;25.15;;;16.83;;
54384;SDS011;40284;52.878;5.998;2022-11-20T02:11:33;26.95;;;18.05;;
54384;SDS011;40284;52.878;5.998;2022-11-20T02:13:59;24.88;;;17.35;;
54384;SDS011;40284;52.878;5.998;2022-11-20T02:16:27;25.58;;;16.70;;
54384;SDS011;40284;52.878;5.998;2022-11-20T02:18:55;27.30;;;17.48;;
54384;SDS011;40284;52.878;5.998;2022-11-20T02:21:41;27.48;;;19.08;;
54384;SDS011;40284;52.878;5.998;2022-11-20T02:26:42;28.65;;;19.38;;
54384;SDS011;40284;52.878;5.998;2022-11-20T02:29:09;26.13;;;18.52;;
54384;SDS011;40284;52.878;5.998;2022-11-20T02:31:40;28.67;;;19.17;;
54384;SDS011;40284;52.878;5.998;2022-11-20T02:34:06;28.23;;;18.98;;
54384;SDS011;40284;52.878;5.998;2022-11-20T02:36:33;27.33;;;19.65;;
54384;SDS011;40284;52.878;5.998;2022-11-20T02:39:00;27.88;;;19.55;;
54384;SDS011;40284;52.878;5.998;2022-11-20T02:41:36;25.40;;;18.42;;
54384;SDS011;40284;52.878;5.998;2022-11-20T02:44:03;25.98;;;19.02;;
54384;SDS011;40284;52.878;5.998;2022-11-20T02:46:29;33.20;;;20.25;;
54384;SDS011;40284;52.878;5.998;2022-11-20T02:48:55;30.58;;;21.95;;
54384;SDS011;40284;52.878;5.998;2022-11-20T02:51:21;27.75;;;19.42;;
54384;SDS011;40284;52.878;5.998;2022-11-20T02:53:48;32.72;;;19.90;;
54384;SDS011;40284;52.878;5.998;2022-11-20T02:56:14;29.52;;;18.95;;
54384;SDS011;40284;52.878;5.998;2022-11-20T02:58:40;35.25;;;22.23;;
54384;SDS011;40284;52.878;5.998;2022-11-20T03:01:06;33.85;;;21.98;;
54384;SDS011;40284;52.878;5.998;2022-11-20T03:03:32;30.38;;;20.10;;
54384;SDS011;40284;52.878;5.998;2022-11-20T03:05:59;30.02;;;21.15;;
54384;SDS011;40284;52.878;5.998;2022-11-20T03:08:25;30.33;;;20.35;;
54384;SDS011;40284;52.878;5.998;2022-11-20T03:10:51;37.83;;;23.92;;
54384;SDS011;40284;52.878;5.998;2022-11-20T03:13:17;31.88;;;21.67;;
54384;SDS011;40284;52.878;5.998;2022-11-20T03:15:43;33.33;;;20.52;;
54384;SDS011;40284;52.878;5.998;2022-11-20T03:18:09;32.00;;;20.02;;
54384;SDS011;40284;52.878;5.998;2022-11-20T03:20:36;29.98;;;19.67;;
54384;SDS011;40284;52.878;5.998;2022-11-20T03:23:02;31.75;;;19.67;;
54384;SDS011;40284;52.878;5.998;2022-11-20T03:25:28;28.92;;;20.25;;
54384;SDS011;40284;52.878;5.998;2022-11-20T03:27:54;27.77;;;19.63;;
54384;SDS011;40284;52.878;5.998;2022-11-20T03:30:20;28.33;;;18.42;;
54384;SDS011;40284;52.878;5.998;2022-11-20T03:32:46;28.50;;;19.42;;
54384;SDS011;40284;52.878;5.998;2022-11-20T03:35:13;28.25;;;18.55;;
54384;SDS011;40284;52.878;5.998;2022-11-20T03:37:39;26.92;;;18.75;;
54384;SDS011;40284;52.878;5.998;2022-11-20T03:40:05;29.00;;;18.85;;
54384;SDS011;40284;52.878;5.998;2022-11-20T03:42:31;26.15;;;17.85;;
54384;SDS011;40284;52.878;5.998;2022-11-20T03:45:10;26.85;;;19.33;;
54384;SDS011;40284;52.878;5.998;2022-11-20T03:47:36;28.95;;;17.67;;
54384;SDS011;40284;52.878;5.998;2022-11-20T03:50:02;23.73;;;16.45;;
54384;SDS011;40284;52.878;5.998;2022-11-20T03:52:28;22.70;;;15.73;;
54384;SDS011;40284;52.878;5.998;2022-11-20T03:54:54;22.10;;;15.82;;
54384;SDS011;40284;52.878;5.998;2022-11-20T03:57:20;23.73;;;16.00;;
54384;SDS011;40284;52.878;5.998;2022-11-20T03:59:46;24.90;;;16.88;;
54384;SDS011;40284;52.878;5.998;2022-11-20T04:02:12;23.10;;;16.27;;
54384;SDS011;40284;52.878;5.998;2022-11-20T04:04:39;23.60;;;16.20;;
54384;SDS011;40284;52.878;5.998;2022-11-20T04:07:05;25.25;;;15.73;;
54384;SDS011;40284;52.878;5.998;2022-11-20T04:09:31;22.02;;;15.63;;
54384;SDS011;40284;52.878;5.998;2022-11-20T04:11:57;24.58;;;15.68;;
54384;SDS011;40284;52.878;5.998;2022-11-20T04:14:23;23.33;;;15.75;;
54384;SDS011;40284;52.878;5.998;2022-11-20T04:16:49;23.48;;;15.98;;
54384;SDS011;40284;52.878;5.998;2022-11-20T04:19:15;24.55;;;15.30;;
54384;SDS011;40284;52.878;5.998;2022-11-20T04:21:42;25.55;;;17.25;;
54384;SDS011;40284;52.878;5.998;2022-11-20T04:24:08;21.20;;;15.43;;
54384;SDS011;40284;52.878;5.998;2022-11-20T04:26:35;23.95;;;15.65;;
54384;SDS011;40284;52.878;5.998;2022-11-20T04:29:02;21.83;;;14.80;;
54384;SDS011;40284;52.878;5.998;2022-11-20T04:31:28;19.17;;;13.52;;
54384;SDS011;40284;52.878;5.998;2022-11-20T04:33:55;19.35;;;13.57;;
54384;SDS011;40284;52.878;5.998;2022-11-20T04:36:22;19.55;;;13.68;;
54384;SDS011;40284;52.878;5.998;2022-11-20T04:38:51;19.33;;;13.23;;
54384;SDS011;40284;52.878;5.998;2022-11-20T04:41:19;22.42;;;13.93;;
54384;SDS011;40284;52.878;5.998;2022-11-20T04:43:46;17.52;;;11.63;;
54384;SDS011;40284;52.878;5.998;2022-11-20T04:46:13;19.13;;;11.88;;
54384;SDS011;40284;52.878;5.998;2022-11-20T04:48:39;18.85;;;12.18;;
54384;SDS011;40284;52.878;5.998;2022-11-20T04:51:05;18.75;;;12.60;;
54384;SDS011;40284;52.878;5.998;2022-11-20T04:53:31;19.23;;;12.70;;
54384;SDS011;40284;52.878;5.998;2022-11-20T04:56:01;19.35;;;13.68;;
54384;SDS011;40284;52.878;5.998;2022-11-20T04:58:27;22.67;;;11.73;;
54384;SDS011;40284;52.878;5.998;2022-11-20T05:00:59;16.42;;;12.60;;
54384;SDS011;40284;52.878;5.998;2022-11-20T05:03:25;21.02;;;13.15;;
54384;SDS011;40284;52.878;5.998;2022-11-20T05:05:52;18.40;;;12.73;;
54384;SDS011;40284;52.878;5.998;2022-11-20T05:08:18;17.33;;;12.00;;
54384;SDS011;40284;52.878;5.998;2022-11-20T05:10:44;17.77;;;11.65;;
54384;SDS011;40284;52.878;5.998;2022-11-20T05:13:10;15.85;;;12.05;;
54384;SDS011;40284;52.878;5.998;2022-11-20T05:15:36;17.23;;;11.85;;
54384;SDS011;40284;52.878;5.998;2022-11-20T05:18:02;20.35;;;11.65;;
54384;SDS011;40284;52.878;5.998;2022-11-20T05:20:28;17.42;;;12.48;;
54384;SDS011;40284;52.878;5.998;2022-11-20T05:22:56;17.20;;;12.93;;
54384;SDS011;40284;52.878;5.998;2022-11-20T05:25:22;18.77;;;11.95;;
54384;SDS011;40284;52.878;5.998;2022-11-20T05:27:48;21.35;;;12.52;;
54384;SDS011;40284;52.878;5.998;2022-11-20T05:30:14;17.58;;;12.43;;
54384;SDS011;40284;52.878;5.998;2022-11-20T05:32:40;19.27;;;12.65;;
54384;SDS011;40284;52.878;5.998;2022-11-20T05:35:07;21.00;;;12.70;;
54384;SDS011;40284;52.878;5.998;2022-11-20T05:37:33;17.95;;;12.20;;
54384;SDS011;40284;52.878;5.998;2022-11-20T05:39:59;22.45;;;12.65;;
54384;SDS011;40284;52.878;5.998;2022-11-20T05:42:25;17.90;;;12.23;;
54384;SDS011;40284;52.878;5.998;2022-11-20T05:44:57;17.88;;;11.88;;
54384;SDS011;40284;52.878;5.998;2022-11-20T05:47:23;18.70;;;11.90;;
54384;SDS011;40284;52.878;5.998;2022-11-20T05:49:49;17.63;;;11.45;;
54384;SDS011;40284;52.878;5.998;2022-11-20T05:52:15;19.30;;;12.43;;
54384;SDS011;40284;52.878;5.998;2022-11-20T05:54:41;19.23;;;12.20;;
54384;SDS011;40284;52.878;5.998;2022-11-20T05:57:07;18.30;;;12.23;;
54384;SDS011;40284;52.878;5.998;2022-11-20T05:59:33;20.20;;;12.45;;
54384;SDS011;40284;52.878;5.998;2022-11-20T06:01:59;18.52;;;12.57;;
54384;SDS011;40284;52.878;5.998;2022-11-20T06:04:26;17.75;;;11.98;;
54384;SDS011;40284;52.878;5.998;2022-11-20T06:06:52;16.55;;;12.00;;
54384;SDS011;40284;52.878;5.998;2022-11-20T06:09:18;22.10;;;11.65;;
54384;SDS011;40284;52.878;5.998;2022-11-20T06:11:44;19.55;;;12.63;;
54384;SDS011;40284;52.878;5.998;2022-11-20T06:14:10;16.50;;;11.98;;
54384;SDS011;40284;52.878;5.998;2022-11-20T06:16:36;16.85;;;11.45;;
54384;SDS011;40284;52.878;5.998;2022-11-20T06:19:02;15.13;;;10.93;;
54384;SDS011;40284;52.878;5.998;2022-11-20T06:21:28;17.77;;;12.35;;
54384;SDS011;40284;52.878;5.998;2022-11-20T06:23:54;17.10;;;12.35;;
54384;SDS011;40284;52.878;5.998;2022-11-20T06:26:24;16.85;;;11.43;;
54384;SDS011;40284;52.878;5.998;2022-11-20T06:28:51;19.17;;;12.25;;
54384;SDS011;40284;52.878;5.998;2022-11-20T06:31:19;21.33;;;13.07;;
54384;SDS011;40284;52.878;5.998;2022-11-20T06:33:45;31.10;;;22.08;;
54384;SDS011;40284;52.878;5.998;2022-11-20T06:36:12;25.92;;;17.02;;
54384;SDS011;40284;52.878;5.998;2022-11-20T06:38:39;21.58;;;15.50;;
54384;SDS011;40284;52.878;5.998;2022-11-20T06:41:05;23.67;;;17.33;;
54384;SDS011;40284;52.878;5.998;2022-11-20T06:43:32;24.80;;;16.27;;
54384;SDS011;40284;52.878;5.998;2022-11-20T06:45:58;24.02;;;17.92;;
54384;SDS011;40284;52.878;5.998;2022-11-20T06:48:25;23.00;;;15.80;;
54384;SDS011;40284;52.878;5.998;2022-11-20T06:50:52;23.63;;;15.43;;
54384;SDS011;40284;52.878;5.998;2022-11-20T06:53:18;26.70;;;15.02;;
54384;SDS011;40284;52.878;5.998;2022-11-20T06:55:44;24.48;;;14.68;;
54384;SDS011;40284;52.878;5.998;2022-11-20T06:58:11;17.42;;;13.27;;
54384;SDS011;40284;52.878;5.998;2022-11-20T07:00:37;22.27;;;13.65;;
54384;SDS011;40284;52.878;5.998;2022-11-20T07:03:04;22.73;;;13.35;;
54384;SDS011;40284;52.878;5.998;2022-11-20T07:05:30;18.55;;;12.82;;
54384;SDS011;40284;52.878;5.998;2022-11-20T07:07:56;21.65;;;13.40;;
54384;SDS011;40284;52.878;5.998;2022-11-20T07:10:23;18.65;;;12.82;;
54384;SDS011;40284;52.878;5.998;2022-11-20T07:12:49;17.42;;;11.52;;
54384;SDS011;40284;52.878;5.998;2022-11-20T07:15:16;17.13;;;12.32;;
54384;SDS011;40284;52.878;5.998;2022-11-20T07:17:42;19.48;;;11.77;;
54384;SDS011;40284;52.878;5.998;2022-11-20T07:20:08;16.50;;;12.45;;
54384;SDS011;40284;52.878;5.998;2022-11-20T07:22:34;15.43;;;11.15;;
54384;SDS011;40284;52.878;5.998;2022-11-20T07:25:00;16.75;;;11.38;;
54384;SDS011;40284;52.878;5.998;2022-11-20T07:27:27;18.90;;;12.60;;
54384;SDS011;40284;52.878;5.998;2022-11-20T07:29:53;17.88;;;12.52;;
54384;SDS011;40284;52.878;5.998;2022-11-20T07:32:19;19.38;;;12.52;;
54384;SDS011;40284;52.878;5.998;2022-11-20T07:34:45;16.20;;;11.23;;
54384;SDS011;40284;52.878;5.998;2022-11-20T07:37:11;17.58;;;10.80;;
54384;SDS011;40284;52.878;5.998;2022-11-20T07:39:37;16.17;;;11.50;;
54384;SDS011;40284;52.878;5.998;2022-11-20T07:42:04;17.60;;;11.45;;
54384;SDS011;40284;52.878;5.998;2022-11-20T07:44:31;17.63;;;11.68;;
54384;SDS011;40284;52.878;5.998;2022-11-20T07:46:57;17.27;;;12.20;;
54384;SDS011;40284;52.878;5.998;2022-11-20T07:49:23;17.17;;;12.18;;
54384;SDS011;40284;52.878;5.998;2022-11-20T07:51:50;17.50;;;11.52;;
54384;SDS011;40284;52.878;5.998;2022-11-20T07:54:18;17.40;;;12.60;;
54384;SDS011;40284;52.878;5.998;2022-11-20T07:56:44;16.10;;;12.02;;
54384;SDS011;40284;52.878;5.998;2022-11-20T07:59:10;19.00;;;12.40;;
54384;SDS011;40284;52.878;5.998;2022-11-20T08:01:37;18.85;;;12.38;;
54384;SDS011;40284;52.878;5.998;2022-11-20T08:04:03;17.67;;;11.57;;
54384;SDS011;40284;52.878;5.998;2022-11-20T08:06:29;18.63;;;12.70;;
54384;SDS011;40284;52.878;5.998;2022-11-20T08:08:55;20.52;;;11.95;;
54384;SDS011;40284;52.878;5.998;2022-11-20T08:11:21;18.73;;;12.48;;
54384;SDS011;40284;52.878;5.998;2022-11-20T08:14:06;18.10;;;12.55;;
54384;SDS011;40284;52.878;5.998;2022-11-20T08:16:38;18.92;;;13.00;;
54384;SDS011;40284;52.878;5.998;2022-11-20T08:19:05;17.98;;;12.45;;
54384;SDS011;40284;52.878;5.998;2022-11-20T08:21:31;19.35;;;12.82;;
54384;SDS011;40284;52.878;5.998;2022-11-20T08:23:57;19.70;;;13.20;;
54384;SDS011;40284;52.878;5.998;2022-11-20T08:26:24;16.75;;;12.38;;
54384;SDS011;40284;52.878;5.998;2022-11-20T08:28:53;18.33;;;12.27;;
54384;SDS011;40284;52.878;5.998;2022-11-20T08:31:20;18.98;;;12.18;;
54384;SDS011;40284;52.878;5.998;2022-11-20T08:33:46;18.00;;;12.02;;
54384;SDS011;40284;52.878;5.998;2022-11-20T08:36:12;20.42;;;13.50;;
54384;SDS011;40284;52.878;5.998;2022-11-20T08:38:38;21.33;;;13.05;;
54384;SDS011;40284;52.878;5.998;2022-11-20T08:41:04;18.02;;;13.07;;
54384;SDS011;40284;52.878;5.998;2022-11-20T08:43:51;18.23;;;13.32;;
54384;SDS011;40284;52.878;5.998;2022-11-20T08:46:17;17.38;;;12.07;;
54384;SDS011;40284;52.878;5.998;2022-11-20T08:48:43;19.60;;;12.65;;
54384;SDS011;40284;52.878;5.998;2022-11-20T08:51:10;18.00;;;11.90;;
54384;SDS011;40284;52.878;5.998;2022-11-20T08:53:37;19.30;;;13.40;;
54384;SDS011;40284;52.878;5.998;2022-11-20T08:56:03;21.15;;;15.15;;
54384;SDS011;40284;52.878;5.998;2022-11-20T08:58:29;28.85;;;17.63;;
54384;SDS011;40284;52.878;5.998;2022-11-20T09:00:55;25.70;;;16.65;;
54384;SDS011;40284;52.878;5.998;2022-11-20T09:03:22;21.08;;;15.15;;
54384;SDS011;40284;52.878;5.998;2022-11-20T09:05:48;19.35;;;12.48;;
54384;SDS011;40284;52.878;5.998;2022-11-20T09:08:14;18.38;;;12.88;;
54384;SDS011;40284;52.878;5.998;2022-11-20T09:10:40;19.27;;;12.77;;
54384;SDS011;40284;52.878;5.998;2022-11-20T09:13:06;20.15;;;13.15;;
54384;SDS011;40284;52.878;5.998;2022-11-20T09:15:32;20.15;;;15.05;;
54384;SDS011;40284;52.878;5.998;2022-11-20T09:18:00;17.55;;;12.82;;
54384;SDS011;40284;52.878;5.998;2022-11-20T09:20:27;19.20;;;12.38;;
54384;SDS011;40284;52.878;5.998;2022-11-20T09:22:54;18.52;;;12.43;;
54384;SDS011;40284;52.878;5.998;2022-11-20T09:25:20;17.70;;;12.60;;
54384;SDS011;40284;52.878;5.998;2022-11-20T09:27:46;19.25;;;12.40;;
54384;SDS011;40284;52.878;5.998;2022-11-20T09:30:14;18.92;;;12.68;;
54384;SDS011;40284;52.878;5.998;2022-11-20T09:32:41;20.55;;;12.90;;
54384;SDS011;40284;52.878;5.998;2022-11-20T09:35:07;17.92;;;13.27;;
54384;SDS011;40284;52.878;5.998;2022-11-20T09:37:34;20.60;;;13.85;;
54384;SDS011;40284;52.878;5.998;2022-11-20T09:40:00;16.73;;;12.88;;
54384;SDS011;40284;52.878;5.998;2022-11-20T09:42:36;17.08;;;12.13;;
54384;SDS011;40284;52.878;5.998;2022-11-20T09:50:06;17.52;;;12.02;;
54384;SDS011;40284;52.878;5.998;2022-11-20T09:55:20;17.33;;;11.93;;
54384;SDS011;40284;52.878;5.998;2022-11-20T09:57:47;21.48;;;14.23;;
54384;SDS011;40284;52.878;5.998;2022-11-20T10:00:14;19.67;;;12.60;;
54384;SDS011;40284;52.878;5.998;2022-11-20T10:07:37;17.75;;;13.20;;
54384;SDS011;40284;52.878;5.998;2022-11-20T10:10:05;23.23;;;16.40;;
54384;SDS011;40284;52.878;5.998;2022-11-20T10:20:16;17.83;;;10.25;;
54384;SDS011;40284;52.878;5.998;2022-11-20T10:22:46;15.90;;;11.73;;
54384;SDS011;40284;52.878;5.998;2022-11-20T10:25:16;15.35;;;9.93;;
54384;SDS011;40284;52.878;5.998;2022-11-20T10:30:16;15.38;;;10.88;;
54384;SDS011;40284;52.878;5.998;2022-11-20T10:32:47;15.45;;;10.90;;
54384;SDS011;40284;52.878;5.998;2022-11-20T10:35:16;16.20;;;11.70;;
54384;SDS011;40284;52.878;5.998;2022-11-20T10:37:44;15.77;;;10.60;;
54384;SDS011;40284;52.878;5.998;2022-11-20T10:40:20;15.88;;;11.57;;
54384;SDS011;40284;52.878;5.998;2022-11-20T10:42:51;15.82;;;11.43;;
54384;SDS011;40284;52.878;5.998;2022-11-20T10:47:50;14.30;;;10.90;;
54384;SDS011;40284;52.878;5.998;2022-11-20T10:50:18;23.50;;;16.02;;
54384;SDS011;40284;52.878;5.998;2022-11-20T10:55:25;18.70;;;12.13;;
54384;SDS011;40284;52.878;5.998;2022-11-20T11:00:22;19.63;;;14.07;;
54384;SDS011;40284;52.878;5.998;2022-11-20T11:02:49;18.20;;;12.82;;
54384;SDS011;40284;52.878;5.998;2022-11-20T11:08:00;17.92;;;12.65;;
54384;SDS011;40284;52.878;5.998;2022-11-20T11:10:32;20.77;;;14.07;;
54384;SDS011;40284;52.878;5.998;2022-11-20T11:13:02;19.73;;;12.70;;
54384;SDS011;40284;52.878;5.998;2022-11-20T11:15:39;22.17;;;15.18;;
54384;SDS011;40284;52.878;5.998;2022-11-20T11:18:09;15.68;;;11.93;;
54384;SDS011;40284;52.878;5.998;2022-11-20T11:20:35;15.40;;;10.98;;
54384;SDS011;40284;52.878;5.998;2022-11-20T11:23:02;17.88;;;11.55;;
54384;SDS011;40284;52.878;5.998;2022-11-20T11:25:36;13.25;;;10.43;;
54384;SDS011;40284;52.878;5.998;2022-11-20T11:28:03;15.13;;;11.07;;
54384;SDS011;40284;52.878;5.998;2022-11-20T11:30:30;18.92;;;12.90;;
54384;SDS011;40284;52.878;5.998;2022-11-20T11:33:09;43.55;;;27.20;;
54384;SDS011;40284;52.878;5.998;2022-11-20T11:35:39;16.17;;;11.60;;
54384;SDS011;40284;52.878;5.998;2022-11-20T11:38:13;15.80;;;11.27;;
54384;SDS011;40284;52.878;5.998;2022-11-20T11:40:40;19.50;;;12.13;;
54384;SDS011;40284;52.878;5.998;2022-11-20T11:43:15;13.90;;;10.95;;
54384;SDS011;40284;52.878;5.998;2022-11-20T11:46:02;13.55;;;10.13;;
54384;SDS011;40284;52.878;5.998;2022-11-20T11:48:30;15.20;;;10.50;;
54384;SDS011;40284;52.878;5.998;2022-11-20T11:50:56;14.65;;;10.32;;
54384;SDS011;40284;52.878;5.998;2022-11-20T11:53:22;14.85;;;10.23;;
54384;SDS011;40284;52.878;5.998;2022-11-20T11:55:59;14.23;;;10.18;;
54384;SDS011;40284;52.878;5.998;2022-11-20T11:58:45;15.27;;;11.43;;
54384;SDS011;40284;52.878;5.998;2022-11-20T12:06:44;15.52;;;10.32;;
54384;SDS011;40284;52.878;5.998;2022-11-20T12:09:11;17.00;;;9.98;;
54384;SDS011;40284;52.878;5.998;2022-11-20T12:11:49;13.77;;;9.52;;
54384;SDS011;40284;52.878;5.998;2022-11-20T12:14:21;14.50;;;9.77;;
54384;SDS011;40284;52.878;5.998;2022-11-20T12:16:52;15.05;;;10.23;;
54384;SDS011;40284;52.878;5.998;2022-11-20T12:19:19;13.95;;;10.10;;
54384;SDS011;40284;52.878;5.998;2022-11-20T12:21:49;15.77;;;10.25;;
54384;SDS011;40284;52.878;5.998;2022-11-20T12:31:59;14.80;;;9.98;;
54384;SDS011;40284;52.878;5.998;2022-11-20T12:50:02;13.68;;;8.98;;
54384;SDS011;40284;52.878;5.998;2022-11-20T12:58:09;14.75;;;11.30;;
54384;SDS011;40284;52.878;5.998;2022-11-20T13:00:37;15.75;;;11.52;;
54384;SDS011;40284;52.878;5.998;2022-11-20T13:05:55;11.65;;;9.15;;
54384;SDS011;40284;52.878;5.998;2022-11-20T13:08:27;15.38;;;10.07;;
54384;SDS011;40284;52.878;5.998;2022-11-20T13:13:29;14.02;;;10.07;;
54384;SDS011;40284;52.878;5.998;2022-11-20T13:15:59;14.88;;;10.73;;
54384;SDS011;40284;52.878;5.998;2022-11-20T13:18:27;14.80;;;10.20;;
54384;SDS011;40284;52.878;5.998;2022-11-20T13:20:53;12.80;;;10.52;;
54384;SDS011;40284;52.878;5.998;2022-11-20T13:23:23;13.40;;;9.82;;
54384;SDS011;40284;52.878;5.998;2022-11-20T13:25:49;14.60;;;10.55;;
54384;SDS011;40284;52.878;5.998;2022-11-20T13:30:53;14.90;;;10.20;;
54384;SDS011;40284;52.878;5.998;2022-11-20T13:33:35;14.32;;;10.13;;
54384;SDS011;40284;52.878;5.998;2022-11-20T13:36:03;13.82;;;10.57;;
54384;SDS011;40284;52.878;5.998;2022-11-20T13:38:43;15.85;;;9.73;;
54384;SDS011;40284;52.878;5.998;2022-11-20T13:41:10;14.98;;;9.45;;
54384;SDS011;40284;52.878;5.998;2022-11-20T13:44:09;14.40;;;10.07;;
54384;SDS011;40284;52.878;5.998;2022-11-20T13:46:37;13.20;;;9.80;;
54384;SDS011;40284;52.878;5.998;2022-11-20T13:49:45;14.43;;;10.43;;
54384;SDS011;40284;52.878;5.998;2022-11-20T13:51:59;11.43;;;9.32;;
54384;SDS011;40284;52.878;5.998;2022-11-20T13:59:46;20.67;;;12.82;;
54384;SDS011;40284;52.878;5.998;2022-11-20T14:02:18;24.95;;;13.75;;
54384;SDS011;40284;52.878;5.998;2022-11-20T14:04:51;23.50;;;14.02;;
54384;SDS011;40284;52.878;5.998;2022-11-20T14:07:18;18.65;;;11.20;;
54384;SDS011;40284;52.878;5.998;2022-11-20T14:09:55;15.27;;;11.00;;
54384;SDS011;40284;52.878;5.998;2022-11-20T14:12:22;15.27;;;12.02;;
54384;SDS011;40284;52.878;5.998;2022-11-20T14:14:52;14.82;;;11.27;;
54384;SDS011;40284;52.878;5.998;2022-11-20T14:17:19;26.05;;;16.73;;
54384;SDS011;40284;52.878;5.998;2022-11-20T14:19:46;17.63;;;11.52;;
54384;SDS011;40284;52.878;5.998;2022-11-20T14:24:43;14.25;;;10.52;;
54384;SDS011;40284;52.878;5.998;2022-11-20T14:27:13;18.85;;;12.63;;
54384;SDS011;40284;52.878;5.998;2022-11-20T14:29:40;21.63;;;14.43;;
54384;SDS011;40284;52.878;5.998;2022-11-20T14:32:08;17.77;;;12.80;;
54384;SDS011;40284;52.878;5.998;2022-11-20T14:34:38;17.08;;;11.88;;
54384;SDS011;40284;52.878;5.998;2022-11-20T14:37:06;17.63;;;12.57;;
54384;SDS011;40284;52.878;5.998;2022-11-20T14:39:37;17.05;;;13.95;;
54384;SDS011;40284;52.878;5.998;2022-11-20T14:42:11;19.15;;;15.38;;
54384;SDS011;40284;52.878;5.998;2022-11-20T14:44:40;25.00;;;18.27;;
54384;SDS011;40284;52.878;5.998;2022-11-20T14:47:08;24.73;;;18.15;;
54384;SDS011;40284;52.878;5.998;2022-11-20T14:49:36;22.92;;;18.02;;
54384;SDS011;40284;52.878;5.998;2022-11-20T14:52:09;21.25;;;15.27;;
54384;SDS011;40284;52.878;5.998;2022-11-20T14:54:49;17.70;;;13.18;;
54384;SDS011;40284;52.878;5.998;2022-11-20T14:57:26;16.55;;;12.02;;
54384;SDS011;40284;52.878;5.998;2022-11-20T15:00:05;15.30;;;11.52;;
54384;SDS011;40284;52.878;5.998;2022-11-20T15:02:32;17.98;;;12.45;;
54384;SDS011;40284;52.878;5.998;2022-11-20T15:04:58;16.75;;;12.45;;
54384;SDS011;40284;52.878;5.998;2022-11-20T15:07:27;23.25;;;16.70;;
54384;SDS011;40284;52.878;5.998;2022-11-20T15:10:27;28.13;;;18.30;;
54384;SDS011;40284;52.878;5.998;2022-11-20T15:12:53;20.85;;;16.17;;
54384;SDS011;40284;52.878;5.998;2022-11-20T15:18:04;16.40;;;11.70;;
54384;SDS011;40284;52.878;5.998;2022-11-20T15:20:33;15.23;;;12.05;;
54384;SDS011;40284;52.878;5.998;2022-11-20T15:22:59;16.77;;;12.15;;
54384;SDS011;40284;52.878;5.998;2022-11-20T15:25:25;23.63;;;18.25;;
54384;SDS011;40284;52.878;5.998;2022-11-20T15:27:53;19.55;;;12.88;;
54384;SDS011;40284;52.878;5.998;2022-11-20T15:30:20;17.83;;;13.77;;
54384;SDS011;40284;52.878;5.998;2022-11-20T15:32:47;15.68;;;12.05;;
54384;SDS011;40284;52.878;5.998;2022-11-20T15:35:13;19.88;;;13.10;;
54384;SDS011;40284;52.878;5.998;2022-11-20T15:37:40;16.90;;;12.98;;
54384;SDS011;40284;52.878;5.998;2022-11-20T15:40:06;16.27;;;12.57;;
54384;SDS011;40284;52.878;5.998;2022-11-20T15:42:33;21.95;;;14.02;;
54384;SDS011;40284;52.878;5.998;2022-11-20T15:44:59;17.45;;;13.30;;
54384;SDS011;40284;52.878;5.998;2022-11-20T15:47:27;20.85;;;13.75;;
54384;SDS011;40284;52.878;5.998;2022-11-20T15:49:53;18.20;;;13.38;;
54384;SDS011;40284;52.878;5.998;2022-11-20T15:52:19;19.70;;;13.68;;
54384;SDS011;40284;52.878;5.998;2022-11-20T15:54:45;18.20;;;14.40;;
54384;SDS011;40284;52.878;5.998;2022-11-20T15:57:11;18.52;;;13.45;;